sensor_id;sensor_type;location;lat;lon;timestamp;P1;durP1;ratioP1;P2;durP2;ratioP2
55455;SDS011;63021;52.836;6.376;2023-03-19T00:01:42;18.77;;;15.25;;
55455;SDS011;63021;52.836;6.376;2023-03-19T00:04:07;20.08;;;16.23;;
55455;SDS011;63021;52.836;6.376;2023-03-19T00:06:33;19.02;;;15.48;;
55455;SDS011;63021;52.836;6.376;2023-03-19T00:08:58;19.40;;;15.35;;
55455;SDS011;63021;52.836;6.376;2023-03-19T00:11:24;21.50;;;15.02;;
55455;SDS011;63021;52.836;6.376;2023-03-19T00:13:50;17.95;;;14.70;;
55455;SDS011;63021;52.836;6.376;2023-03-19T00:16:15;18.35;;;13.90;;
55455;SDS011;63021;52.836;6.376;2023-03-19T00:18:41;17.88;;;13.68;;
55455;SDS011;63021;52.836;6.376;2023-03-19T00:21:07;16.73;;;13.85;;
55455;SDS011;63021;52.836;6.376;2023-03-19T00:23:33;22.92;;;14.43;;
55455;SDS011;63021;52.836;6.376;2023-03-19T00:26:00;23.30;;;14.07;;
55455;SDS011;63021;52.836;6.376;2023-03-19T00:28:26;16.38;;;13.45;;
55455;SDS011;63021;52.836;6.376;2023-03-19T00:30:52;18.17;;;14.13;;
55455;SDS011;63021;52.836;6.376;2023-03-19T00:33:17;20.67;;;14.77;;
55455;SDS011;63021;52.836;6.376;2023-03-19T00:35:44;19.75;;;14.60;;
55455;SDS011;63021;52.836;6.376;2023-03-19T00:38:10;16.77;;;13.70;;
55455;SDS011;63021;52.836;6.376;2023-03-19T00:40:35;17.13;;;13.10;;
55455;SDS011;63021;52.836;6.376;2023-03-19T00:43:01;15.07;;;12.98;;
55455;SDS011;63021;52.836;6.376;2023-03-19T00:45:27;16.52;;;12.82;;
55455;SDS011;63021;52.836;6.376;2023-03-19T00:47:54;17.90;;;12.80;;
55455;SDS011;63021;52.836;6.376;2023-03-19T00:50:22;19.45;;;15.15;;
55455;SDS011;63021;52.836;6.376;2023-03-19T00:52:49;15.70;;;12.20;;
55455;SDS011;63021;52.836;6.376;2023-03-19T00:55:16;16.42;;;12.05;;
55455;SDS011;63021;52.836;6.376;2023-03-19T00:57:42;15.60;;;12.90;;
55455;SDS011;63021;52.836;6.376;2023-03-19T01:00:08;15.52;;;11.93;;
55455;SDS011;63021;52.836;6.376;2023-03-19T01:02:34;16.10;;;11.93;;
55455;SDS011;63021;52.836;6.376;2023-03-19T01:05:00;15.15;;;11.50;;
55455;SDS011;63021;52.836;6.376;2023-03-19T01:07:25;14.43;;;11.30;;
55455;SDS011;63021;52.836;6.376;2023-03-19T01:09:51;16.10;;;11.30;;
55455;SDS011;63021;52.836;6.376;2023-03-19T01:12:16;15.07;;;11.32;;
55455;SDS011;63021;52.836;6.376;2023-03-19T01:14:43;14.75;;;10.70;;
55455;SDS011;63021;52.836;6.376;2023-03-19T01:17:08;11.63;;;10.32;;
55455;SDS011;63021;52.836;6.376;2023-03-19T01:19:34;13.48;;;10.65;;
55455;SDS011;63021;52.836;6.376;2023-03-19T01:21:59;13.20;;;10.02;;
55455;SDS011;63021;52.836;6.376;2023-03-19T01:24:28;12.45;;;9.20;;
55455;SDS011;63021;52.836;6.376;2023-03-19T01:26:54;13.50;;;9.20;;
55455;SDS011;63021;52.836;6.376;2023-03-19T01:29:19;11.60;;;9.13;;
55455;SDS011;63021;52.836;6.376;2023-03-19T01:31:44;9.05;;;8.15;;
55455;SDS011;63021;52.836;6.376;2023-03-19T01:34:10;10.00;;;8.18;;
55455;SDS011;63021;52.836;6.376;2023-03-19T01:36:35;8.05;;;7.15;;
55455;SDS011;63021;52.836;6.376;2023-03-19T01:39:00;12.52;;;7.78;;
55455;SDS011;63021;52.836;6.376;2023-03-19T01:41:26;10.20;;;7.65;;
55455;SDS011;63021;52.836;6.376;2023-03-19T01:43:51;12.93;;;6.97;;
55455;SDS011;63021;52.836;6.376;2023-03-19T01:46:27;8.88;;;6.25;;
55455;SDS011;63021;52.836;6.376;2023-03-19T01:48:57;11.35;;;7.25;;
55455;SDS011;63021;52.836;6.376;2023-03-19T01:51:28;8.50;;;6.20;;
55455;SDS011;63021;52.836;6.376;2023-03-19T01:53:56;8.98;;;6.28;;
55455;SDS011;63021;52.836;6.376;2023-03-19T01:56:29;8.00;;;6.15;;
55455;SDS011;63021;52.836;6.376;2023-03-19T01:58:58;7.22;;;5.50;;
55455;SDS011;63021;52.836;6.376;2023-03-19T02:01:28;8.88;;;5.75;;
55455;SDS011;63021;52.836;6.376;2023-03-19T02:03:58;5.78;;;5.18;;
55455;SDS011;63021;52.836;6.376;2023-03-19T02:06:23;7.18;;;4.40;;
55455;SDS011;63021;52.836;6.376;2023-03-19T02:08:49;5.40;;;4.90;;
55455;SDS011;63021;52.836;6.376;2023-03-19T02:11:16;4.95;;;4.47;;
55455;SDS011;63021;52.836;6.376;2023-03-19T02:13:42;5.75;;;4.68;;
55455;SDS011;63021;52.836;6.376;2023-03-19T02:16:09;5.20;;;4.10;;
55455;SDS011;63021;52.836;6.376;2023-03-19T02:18:35;5.70;;;4.60;;
55455;SDS011;63021;52.836;6.376;2023-03-19T02:26:38;5.05;;;4.00;;
55455;SDS011;63021;52.836;6.376;2023-03-19T02:29:06;4.13;;;3.45;;
55455;SDS011;63021;52.836;6.376;2023-03-19T02:31:31;3.78;;;3.38;;
55455;SDS011;63021;52.836;6.376;2023-03-19T02:36:23;3.92;;;3.45;;
55455;SDS011;63021;52.836;6.376;2023-03-19T02:38:55;3.88;;;3.47;;
55455;SDS011;63021;52.836;6.376;2023-03-19T02:41:25;4.75;;;4.05;;
55455;SDS011;63021;52.836;6.376;2023-03-19T02:43:50;5.18;;;3.10;;
55455;SDS011;63021;52.836;6.376;2023-03-19T02:46:18;5.35;;;3.30;;
55455;SDS011;63021;52.836;6.376;2023-03-19T02:48:44;2.92;;;2.70;;
55455;SDS011;63021;52.836;6.376;2023-03-19T02:51:10;3.25;;;2.90;;
55455;SDS011;63021;52.836;6.376;2023-03-19T02:53:37;3.75;;;3.03;;
55455;SDS011;63021;52.836;6.376;2023-03-19T02:56:02;3.28;;;3.03;;
55455;SDS011;63021;52.836;6.376;2023-03-19T02:58:28;5.00;;;2.90;;
55455;SDS011;63021;52.836;6.376;2023-03-19T03:00:53;3.20;;;2.90;;
55455;SDS011;63021;52.836;6.376;2023-03-19T03:03:20;4.25;;;2.83;;
55455;SDS011;63021;52.836;6.376;2023-03-19T03:05:45;3.35;;;3.05;;
55455;SDS011;63021;52.836;6.376;2023-03-19T03:08:11;3.30;;;2.75;;
55455;SDS011;63021;52.836;6.376;2023-03-19T03:10:36;3.20;;;2.92;;
55455;SDS011;63021;52.836;6.376;2023-03-19T03:13:02;3.42;;;2.88;;
55455;SDS011;63021;52.836;6.376;2023-03-19T03:15:27;2.70;;;2.50;;
55455;SDS011;63021;52.836;6.376;2023-03-19T03:17:54;3.80;;;2.85;;
55455;SDS011;63021;52.836;6.376;2023-03-19T03:20:22;5.03;;;3.00;;
55455;SDS011;63021;52.836;6.376;2023-03-19T03:22:48;2.85;;;2.65;;
55455;SDS011;63021;52.836;6.376;2023-03-19T03:25:14;3.08;;;2.83;;
55455;SDS011;63021;52.836;6.376;2023-03-19T03:27:40;2.80;;;2.60;;
55455;SDS011;63021;52.836;6.376;2023-03-19T03:30:07;3.58;;;3.08;;
55455;SDS011;63021;52.836;6.376;2023-03-19T03:32:35;2.63;;;2.50;;
55455;SDS011;63021;52.836;6.376;2023-03-19T03:35:04;4.90;;;3.17;;
55455;SDS011;63021;52.836;6.376;2023-03-19T03:37:31;3.03;;;2.83;;
55455;SDS011;63021;52.836;6.376;2023-03-19T03:39:56;4.53;;;3.00;;
55455;SDS011;63021;52.836;6.376;2023-03-19T03:42:22;3.13;;;2.83;;
55455;SDS011;63021;52.836;6.376;2023-03-19T03:44:47;4.90;;;2.80;;
55455;SDS011;63021;52.836;6.376;2023-03-19T03:47:13;4.00;;;3.03;;
55455;SDS011;63021;52.836;6.376;2023-03-19T03:49:38;3.70;;;3.40;;
55455;SDS011;63021;52.836;6.376;2023-03-19T03:52:04;7.35;;;3.30;;
55455;SDS011;63021;52.836;6.376;2023-03-19T03:54:30;5.35;;;3.85;;
55455;SDS011;63021;52.836;6.376;2023-03-19T03:56:56;4.47;;;3.47;;
55455;SDS011;63021;52.836;6.376;2023-03-19T03:59:21;5.13;;;4.45;;
55455;SDS011;63021;52.836;6.376;2023-03-19T04:01:48;9.05;;;5.38;;
55455;SDS011;63021;52.836;6.376;2023-03-19T04:04:13;7.50;;;5.28;;
55455;SDS011;63021;52.836;6.376;2023-03-19T04:06:39;5.13;;;4.18;;
55455;SDS011;63021;52.836;6.376;2023-03-19T04:09:04;4.93;;;4.40;;
55455;SDS011;63021;52.836;6.376;2023-03-19T04:11:31;7.03;;;4.95;;
55455;SDS011;63021;52.836;6.376;2023-03-19T04:13:57;5.15;;;4.60;;
55455;SDS011;63021;52.836;6.376;2023-03-19T04:16:23;5.55;;;5.03;;
55455;SDS011;63021;52.836;6.376;2023-03-19T04:18:48;5.45;;;4.85;;
55455;SDS011;63021;52.836;6.376;2023-03-19T04:21:14;6.13;;;5.50;;
55455;SDS011;63021;52.836;6.376;2023-03-19T04:23:42;7.22;;;5.53;;
55455;SDS011;63021;52.836;6.376;2023-03-19T04:26:08;7.25;;;4.70;;
55455;SDS011;63021;52.836;6.376;2023-03-19T04:28:34;7.18;;;4.97;;
55455;SDS011;63021;52.836;6.376;2023-03-19T04:31:01;8.07;;;4.57;;
55455;SDS011;63021;52.836;6.376;2023-03-19T04:33:28;5.35;;;4.35;;
55455;SDS011;63021;52.836;6.376;2023-03-19T04:35:55;5.45;;;4.75;;
55455;SDS011;63021;52.836;6.376;2023-03-19T04:38:21;5.03;;;4.57;;
55455;SDS011;63021;52.836;6.376;2023-03-19T04:40:48;5.78;;;4.85;;
55455;SDS011;63021;52.836;6.376;2023-03-19T04:43:14;5.47;;;4.72;;
55455;SDS011;63021;52.836;6.376;2023-03-19T04:45:43;6.55;;;5.20;;
55455;SDS011;63021;52.836;6.376;2023-03-19T04:48:08;5.60;;;4.97;;
55455;SDS011;63021;52.836;6.376;2023-03-19T04:50:33;5.70;;;4.20;;
55455;SDS011;63021;52.836;6.376;2023-03-19T04:52:59;4.80;;;4.30;;
55455;SDS011;63021;52.836;6.376;2023-03-19T04:55:27;6.10;;;4.78;;
55455;SDS011;63021;52.836;6.376;2023-03-19T04:57:52;4.85;;;4.43;;
55455;SDS011;63021;52.836;6.376;2023-03-19T05:00:18;5.40;;;4.90;;
55455;SDS011;63021;52.836;6.376;2023-03-19T05:02:44;5.22;;;4.78;;
55455;SDS011;63021;52.836;6.376;2023-03-19T05:05:10;7.07;;;5.28;;
55455;SDS011;63021;52.836;6.376;2023-03-19T05:07:37;6.75;;;5.20;;
55455;SDS011;63021;52.836;6.376;2023-03-19T05:10:04;5.30;;;4.55;;
55455;SDS011;63021;52.836;6.376;2023-03-19T05:12:29;7.55;;;4.80;;
55455;SDS011;63021;52.836;6.376;2023-03-19T05:14:55;5.85;;;4.57;;
55455;SDS011;63021;52.836;6.376;2023-03-19T05:17:21;6.75;;;5.05;;
55455;SDS011;63021;52.836;6.376;2023-03-19T05:19:46;7.40;;;5.78;;
55455;SDS011;63021;52.836;6.376;2023-03-19T05:22:12;6.63;;;4.80;;
55455;SDS011;63021;52.836;6.376;2023-03-19T05:24:39;9.07;;;5.25;;
55455;SDS011;63021;52.836;6.376;2023-03-19T05:27:05;5.47;;;4.45;;
55455;SDS011;63021;52.836;6.376;2023-03-19T05:29:31;6.70;;;4.60;;
55455;SDS011;63021;52.836;6.376;2023-03-19T05:31:57;5.97;;;4.28;;
55455;SDS011;63021;52.836;6.376;2023-03-19T05:34:23;7.15;;;4.25;;
55455;SDS011;63021;52.836;6.376;2023-03-19T05:36:49;4.85;;;4.45;;
55455;SDS011;63021;52.836;6.376;2023-03-19T05:39:14;4.10;;;3.70;;
55455;SDS011;63021;52.836;6.376;2023-03-19T05:41:40;4.97;;;4.55;;
55455;SDS011;63021;52.836;6.376;2023-03-19T05:44:05;7.07;;;3.88;;
55455;SDS011;63021;52.836;6.376;2023-03-19T05:46:31;4.72;;;4.13;;
55455;SDS011;63021;52.836;6.376;2023-03-19T05:48:56;4.40;;;3.80;;
55455;SDS011;63021;52.836;6.376;2023-03-19T05:53:52;4.72;;;4.28;;
55455;SDS011;63021;52.836;6.376;2023-03-19T05:56:17;4.30;;;3.90;;
55455;SDS011;63021;52.836;6.376;2023-03-19T05:58:43;4.60;;;3.88;;
55455;SDS011;63021;52.836;6.376;2023-03-19T06:01:09;4.75;;;4.05;;
55455;SDS011;63021;52.836;6.376;2023-03-19T06:03:34;4.28;;;3.88;;
55455;SDS011;63021;52.836;6.376;2023-03-19T06:06:00;4.65;;;4.25;;
55455;SDS011;63021;52.836;6.376;2023-03-19T06:08:25;4.13;;;3.72;;
55455;SDS011;63021;52.836;6.376;2023-03-19T06:10:51;5.22;;;4.72;;
55455;SDS011;63021;52.836;6.376;2023-03-19T06:13:17;4.70;;;4.30;;
55455;SDS011;63021;52.836;6.376;2023-03-19T06:15:42;4.38;;;3.97;;
55455;SDS011;63021;52.836;6.376;2023-03-19T06:18:08;5.30;;;4.57;;
55455;SDS011;63021;52.836;6.376;2023-03-19T06:20:33;7.53;;;5.07;;
55455;SDS011;63021;52.836;6.376;2023-03-19T06:22:58;5.38;;;4.38;;
55455;SDS011;63021;52.836;6.376;2023-03-19T06:25:24;5.78;;;5.28;;
55455;SDS011;63021;52.836;6.376;2023-03-19T06:27:49;5.65;;;4.70;;
55455;SDS011;63021;52.836;6.376;2023-03-19T06:30:15;6.75;;;5.10;;
55455;SDS011;63021;52.836;6.376;2023-03-19T06:32:40;7.28;;;4.82;;
55455;SDS011;63021;52.836;6.376;2023-03-19T06:35:06;6.32;;;4.93;;
55455;SDS011;63021;52.836;6.376;2023-03-19T06:37:32;6.13;;;5.50;;
55455;SDS011;63021;52.836;6.376;2023-03-19T06:39:58;5.40;;;4.85;;
55455;SDS011;63021;52.836;6.376;2023-03-19T06:42:23;7.10;;;6.13;;
55455;SDS011;63021;52.836;6.376;2023-03-19T06:44:49;5.88;;;5.38;;
55455;SDS011;63021;52.836;6.376;2023-03-19T06:47:14;7.50;;;6.70;;
55455;SDS011;63021;52.836;6.376;2023-03-19T06:49:40;7.03;;;6.32;;
55455;SDS011;63021;52.836;6.376;2023-03-19T06:52:06;8.40;;;7.35;;
55455;SDS011;63021;52.836;6.376;2023-03-19T06:54:32;7.90;;;6.95;;
55455;SDS011;63021;52.836;6.376;2023-03-19T06:56:57;9.85;;;7.72;;
55455;SDS011;63021;52.836;6.376;2023-03-19T06:59:23;9.63;;;7.65;;
55455;SDS011;63021;52.836;6.376;2023-03-19T07:01:49;11.30;;;9.32;;
55455;SDS011;63021;52.836;6.376;2023-03-19T07:04:16;12.07;;;8.40;;
55455;SDS011;63021;52.836;6.376;2023-03-19T07:06:42;13.50;;;8.73;;
55455;SDS011;63021;52.836;6.376;2023-03-19T07:09:07;9.52;;;7.82;;
55455;SDS011;63021;52.836;6.376;2023-03-19T07:11:34;10.05;;;8.23;;
55455;SDS011;63021;52.836;6.376;2023-03-19T07:13:59;10.60;;;8.68;;
55455;SDS011;63021;52.836;6.376;2023-03-19T07:16:29;10.02;;;7.65;;
55455;SDS011;63021;52.836;6.376;2023-03-19T07:18:54;9.23;;;8.20;;
55455;SDS011;63021;52.836;6.376;2023-03-19T07:21:20;10.75;;;7.15;;
55455;SDS011;63021;52.836;6.376;2023-03-19T07:23:46;10.05;;;7.95;;
55455;SDS011;63021;52.836;6.376;2023-03-19T07:26:12;10.50;;;7.40;;
55455;SDS011;63021;52.836;6.376;2023-03-19T07:28:37;9.82;;;8.20;;
55455;SDS011;63021;52.836;6.376;2023-03-19T07:31:03;9.43;;;8.38;;
55455;SDS011;63021;52.836;6.376;2023-03-19T07:33:29;14.93;;;8.52;;
55455;SDS011;63021;52.836;6.376;2023-03-19T07:35:55;9.27;;;7.47;;
55455;SDS011;63021;52.836;6.376;2023-03-19T07:38:21;7.63;;;6.90;;
55455;SDS011;63021;52.836;6.376;2023-03-19T07:40:48;11.52;;;7.97;;
55455;SDS011;63021;52.836;6.376;2023-03-19T07:43:14;9.82;;;7.70;;
55455;SDS011;63021;52.836;6.376;2023-03-19T07:45:39;10.15;;;8.00;;
55455;SDS011;63021;52.836;6.376;2023-03-19T07:48:06;9.02;;;8.15;;
55455;SDS011;63021;52.836;6.376;2023-03-19T07:50:32;9.10;;;7.25;;
55455;SDS011;63021;52.836;6.376;2023-03-19T07:52:58;9.48;;;7.80;;
55455;SDS011;63021;52.836;6.376;2023-03-19T07:55:23;10.32;;;7.85;;
55455;SDS011;63021;52.836;6.376;2023-03-19T07:58:01;9.82;;;8.82;;
55455;SDS011;63021;52.836;6.376;2023-03-19T08:00:30;10.20;;;8.98;;
55455;SDS011;63021;52.836;6.376;2023-03-19T08:02:55;11.73;;;9.13;;
55455;SDS011;63021;52.836;6.376;2023-03-19T08:05:21;11.50;;;8.98;;
55455;SDS011;63021;52.836;6.376;2023-03-19T08:07:49;11.63;;;8.88;;
55455;SDS011;63021;52.836;6.376;2023-03-19T08:10:16;12.60;;;10.68;;
55455;SDS011;63021;52.836;6.376;2023-03-19T08:12:42;11.98;;;9.70;;
55455;SDS011;63021;52.836;6.376;2023-03-19T08:15:08;12.90;;;9.13;;
55455;SDS011;63021;52.836;6.376;2023-03-19T08:17:35;10.75;;;8.68;;
55455;SDS011;63021;52.836;6.376;2023-03-19T08:20:12;9.80;;;8.80;;
55455;SDS011;63021;52.836;6.376;2023-03-19T08:22:40;10.18;;;8.70;;
55455;SDS011;63021;52.836;6.376;2023-03-19T08:25:16;10.32;;;8.77;;
55455;SDS011;63021;52.836;6.376;2023-03-19T08:27:41;9.48;;;8.48;;
55455;SDS011;63021;52.836;6.376;2023-03-19T08:30:08;11.82;;;9.30;;
55455;SDS011;63021;52.836;6.376;2023-03-19T08:32:34;10.68;;;9.20;;
55455;SDS011;63021;52.836;6.376;2023-03-19T08:35:00;10.20;;;9.13;;
55455;SDS011;63021;52.836;6.376;2023-03-19T08:37:26;11.55;;;9.18;;
55455;SDS011;63021;52.836;6.376;2023-03-19T08:42:21;14.18;;;10.05;;
55455;SDS011;63021;52.836;6.376;2023-03-19T08:44:47;10.60;;;8.80;;
55455;SDS011;63021;52.836;6.376;2023-03-19T08:47:20;12.40;;;8.63;;
55455;SDS011;63021;52.836;6.376;2023-03-19T08:49:48;11.13;;;9.30;;
55455;SDS011;63021;52.836;6.376;2023-03-19T08:52:15;10.70;;;8.85;;
55455;SDS011;63021;52.836;6.376;2023-03-19T08:54:40;13.55;;;9.65;;
55455;SDS011;63021;52.836;6.376;2023-03-19T08:57:06;11.27;;;8.68;;
55455;SDS011;63021;52.836;6.376;2023-03-19T08:59:31;9.98;;;8.80;;
55455;SDS011;63021;52.836;6.376;2023-03-19T09:01:56;13.02;;;9.20;;
55455;SDS011;63021;52.836;6.376;2023-03-19T09:04:22;10.80;;;8.93;;
55455;SDS011;63021;52.836;6.376;2023-03-19T09:06:49;11.50;;;9.25;;
55455;SDS011;63021;52.836;6.376;2023-03-19T09:09:15;10.13;;;8.82;;
55455;SDS011;63021;52.836;6.376;2023-03-19T09:11:42;14.13;;;9.68;;
55455;SDS011;63021;52.836;6.376;2023-03-19T09:14:07;12.88;;;9.63;;
55455;SDS011;63021;52.836;6.376;2023-03-19T09:16:38;12.10;;;10.77;;
55455;SDS011;63021;52.836;6.376;2023-03-19T09:19:04;10.20;;;8.63;;
55455;SDS011;63021;52.836;6.376;2023-03-19T09:21:29;12.05;;;8.82;;
55455;SDS011;63021;52.836;6.376;2023-03-19T09:23:55;10.90;;;8.52;;
55455;SDS011;63021;52.836;6.376;2023-03-19T09:26:21;10.13;;;8.88;;
55455;SDS011;63021;52.836;6.376;2023-03-19T09:28:46;12.75;;;9.25;;
55455;SDS011;63021;52.836;6.376;2023-03-19T09:31:11;9.40;;;8.40;;
55455;SDS011;63021;52.836;6.376;2023-03-19T09:33:37;10.82;;;8.70;;
55455;SDS011;63021;52.836;6.376;2023-03-19T09:36:03;11.88;;;9.75;;
55455;SDS011;63021;52.836;6.376;2023-03-19T09:38:35;11.57;;;10.02;;
55455;SDS011;63021;52.836;6.376;2023-03-19T09:46:45;11.77;;;10.05;;
55455;SDS011;63021;52.836;6.376;2023-03-19T09:51:53;12.65;;;11.35;;
55455;SDS011;63021;52.836;6.376;2023-03-19T09:57:03;13.13;;;10.30;;
55455;SDS011;63021;52.836;6.376;2023-03-19T09:59:28;14.63;;;10.75;;
55455;SDS011;63021;52.836;6.376;2023-03-19T10:02:00;13.15;;;11.00;;
55455;SDS011;63021;52.836;6.376;2023-03-19T10:18:46;16.85;;;12.68;;
55455;SDS011;63021;52.836;6.376;2023-03-19T10:23:44;16.02;;;12.30;;
55455;SDS011;63021;52.836;6.376;2023-03-19T10:26:16;18.58;;;12.85;;
55455;SDS011;63021;52.836;6.376;2023-03-19T10:28:44;16.85;;;12.60;;
55455;SDS011;63021;52.836;6.376;2023-03-19T10:31:27;16.05;;;11.85;;
55455;SDS011;63021;52.836;6.376;2023-03-19T10:34:14;16.27;;;12.48;;
55455;SDS011;63021;52.836;6.376;2023-03-19T10:36:57;15.05;;;11.98;;
55455;SDS011;63021;52.836;6.376;2023-03-19T10:39:29;15.60;;;12.60;;
55455;SDS011;63021;52.836;6.376;2023-03-19T10:42:02;17.95;;;12.63;;
55455;SDS011;63021;52.836;6.376;2023-03-19T10:44:37;17.52;;;12.45;;
55455;SDS011;63021;52.836;6.376;2023-03-19T10:47:25;16.08;;;12.77;;
55455;SDS011;63021;52.836;6.376;2023-03-19T10:49:51;14.98;;;12.07;;
55455;SDS011;63021;52.836;6.376;2023-03-19T10:54:48;16.85;;;12.77;;
55455;SDS011;63021;52.836;6.376;2023-03-19T10:57:21;16.33;;;12.25;;
55455;SDS011;63021;52.836;6.376;2023-03-19T10:59:51;16.23;;;12.48;;
55455;SDS011;63021;52.836;6.376;2023-03-19T11:02:20;14.93;;;11.55;;
55455;SDS011;63021;52.836;6.376;2023-03-19T11:04:51;17.27;;;12.65;;
55455;SDS011;63021;52.836;6.376;2023-03-19T11:07:31;15.45;;;12.15;;
55455;SDS011;63021;52.836;6.376;2023-03-19T11:09:57;18.30;;;13.27;;
55455;SDS011;63021;52.836;6.376;2023-03-19T11:12:29;16.45;;;12.45;;
55455;SDS011;63021;52.836;6.376;2023-03-19T11:14:58;19.00;;;14.07;;
55455;SDS011;63021;52.836;6.376;2023-03-19T11:22:39;14.00;;;11.88;;
55455;SDS011;63021;52.836;6.376;2023-03-19T11:27:43;18.33;;;12.45;;
55455;SDS011;63021;52.836;6.376;2023-03-19T11:30:21;16.25;;;12.35;;
55455;SDS011;63021;52.836;6.376;2023-03-19T11:35:22;14.93;;;11.52;;
55455;SDS011;63021;52.836;6.376;2023-03-19T11:37:56;15.73;;;12.18;;
55455;SDS011;63021;52.836;6.376;2023-03-19T11:45:58;18.10;;;12.27;;
55455;SDS011;63021;52.836;6.376;2023-03-19T11:57:39;15.65;;;11.88;;
55455;SDS011;63021;52.836;6.376;2023-03-19T12:05:55;20.00;;;12.93;;
55455;SDS011;63021;52.836;6.376;2023-03-19T12:11:06;13.63;;;11.27;;
55455;SDS011;63021;52.836;6.376;2023-03-19T12:19:10;16.98;;;12.77;;
55455;SDS011;63021;52.836;6.376;2023-03-19T12:21:55;17.63;;;13.80;;
55455;SDS011;63021;52.836;6.376;2023-03-19T12:27:00;18.35;;;13.40;;
55455;SDS011;63021;52.836;6.376;2023-03-19T12:29:40;21.23;;;13.93;;
55455;SDS011;63021;52.836;6.376;2023-03-19T12:34:45;19.40;;;13.82;;
55455;SDS011;63021;52.836;6.376;2023-03-19T12:37:24;20.60;;;13.75;;
55455;SDS011;63021;52.836;6.376;2023-03-19T12:43:00;19.85;;;12.30;;
55455;SDS011;63021;52.836;6.376;2023-03-19T12:48:07;16.48;;;12.25;;
55455;SDS011;63021;52.836;6.376;2023-03-19T12:50:35;17.77;;;12.77;;
55455;SDS011;63021;52.836;6.376;2023-03-19T12:53:04;19.60;;;14.25;;
55455;SDS011;63021;52.836;6.376;2023-03-19T12:55:44;18.17;;;13.25;;
55455;SDS011;63021;52.836;6.376;2023-03-19T12:58:17;18.27;;;12.30;;
55455;SDS011;63021;52.836;6.376;2023-03-19T13:00:54;17.13;;;12.95;;
55455;SDS011;63021;52.836;6.376;2023-03-19T13:03:40;16.08;;;12.43;;
55455;SDS011;63021;52.836;6.376;2023-03-19T13:06:20;16.35;;;12.45;;
55455;SDS011;63021;52.836;6.376;2023-03-19T13:11:37;13.23;;;11.15;;
55455;SDS011;63021;52.836;6.376;2023-03-19T13:19:26;14.95;;;11.43;;
55455;SDS011;63021;52.836;6.376;2023-03-19T13:21:54;15.98;;;11.25;;
55455;SDS011;63021;52.836;6.376;2023-03-19T13:24:27;14.65;;;10.68;;
55455;SDS011;63021;52.836;6.376;2023-03-19T13:26:55;15.90;;;11.60;;
55455;SDS011;63021;52.836;6.376;2023-03-19T13:29:26;18.27;;;11.73;;
55455;SDS011;63021;52.836;6.376;2023-03-19T13:31:52;17.25;;;11.80;;
55455;SDS011;63021;52.836;6.376;2023-03-19T13:34:27;13.20;;;10.73;;
55455;SDS011;63021;52.836;6.376;2023-03-19T13:37:08;16.10;;;9.73;;
55455;SDS011;63021;52.836;6.376;2023-03-19T13:39:40;13.45;;;10.63;;
55455;SDS011;63021;52.836;6.376;2023-03-19T13:42:22;14.25;;;11.05;;
55455;SDS011;63021;52.836;6.376;2023-03-19T13:45:02;13.93;;;10.82;;
55455;SDS011;63021;52.836;6.376;2023-03-19T13:47:48;17.42;;;13.25;;
55455;SDS011;63021;52.836;6.376;2023-03-19T14:01:02;28.48;;;18.90;;
55455;SDS011;63021;52.836;6.376;2023-03-19T14:03:29;30.52;;;18.90;;
55455;SDS011;63021;52.836;6.376;2023-03-19T14:05:57;30.63;;;19.40;;
55455;SDS011;63021;52.836;6.376;2023-03-19T14:08:41;26.42;;;17.85;;
55455;SDS011;63021;52.836;6.376;2023-03-19T14:11:15;28.25;;;17.80;;
55455;SDS011;63021;52.836;6.376;2023-03-19T14:13:47;28.00;;;17.38;;
55455;SDS011;63021;52.836;6.376;2023-03-19T14:18:46;27.63;;;17.20;;
55455;SDS011;63021;52.836;6.376;2023-03-19T14:21:15;28.25;;;17.50;;
55455;SDS011;63021;52.836;6.376;2023-03-19T14:23:54;24.20;;;15.02;;
55455;SDS011;63021;52.836;6.376;2023-03-19T14:26:22;33.45;;;16.00;;
55455;SDS011;63021;52.836;6.376;2023-03-19T14:29:05;26.25;;;14.90;;
55455;SDS011;63021;52.836;6.376;2023-03-19T14:39:41;32.85;;;16.60;;
55455;SDS011;63021;52.836;6.376;2023-03-19T14:55:36;24.05;;;13.55;;
55455;SDS011;63021;52.836;6.376;2023-03-19T14:58:02;21.67;;;12.40;;
55455;SDS011;63021;52.836;6.376;2023-03-19T15:00:36;26.13;;;12.85;;
55455;SDS011;63021;52.836;6.376;2023-03-19T15:03:09;22.42;;;12.65;;
55455;SDS011;63021;52.836;6.376;2023-03-19T15:06:00;26.17;;;13.20;;
55455;SDS011;63021;52.836;6.376;2023-03-19T15:08:31;21.00;;;12.55;;
55455;SDS011;63021;52.836;6.376;2023-03-19T15:16:38;24.13;;;13.73;;
55455;SDS011;63021;52.836;6.376;2023-03-19T15:19:16;25.85;;;13.65;;
55455;SDS011;63021;52.836;6.376;2023-03-19T15:21:48;25.98;;;13.13;;
55455;SDS011;63021;52.836;6.376;2023-03-19T15:24:16;23.70;;;14.60;;
55455;SDS011;63021;52.836;6.376;2023-03-19T15:26:43;24.40;;;14.65;;
55455;SDS011;63021;52.836;6.376;2023-03-19T15:29:10;26.73;;;14.40;;
55455;SDS011;63021;52.836;6.376;2023-03-19T15:31:41;26.13;;;13.20;;
55455;SDS011;63021;52.836;6.376;2023-03-19T15:34:24;26.05;;;14.13;;
55455;SDS011;63021;52.836;6.376;2023-03-19T15:36:58;25.92;;;14.95;;
55455;SDS011;63021;52.836;6.376;2023-03-19T15:39:31;32.35;;;15.25;;
55455;SDS011;63021;52.836;6.376;2023-03-19T15:41:59;29.42;;;15.20;;
55455;SDS011;63021;52.836;6.376;2023-03-19T15:44:29;33.75;;;16.63;;
55455;SDS011;63021;52.836;6.376;2023-03-19T15:46:55;30.27;;;14.40;;
55455;SDS011;63021;52.836;6.376;2023-03-19T15:49:27;32.13;;;15.55;;
55455;SDS011;63021;52.836;6.376;2023-03-19T15:51:57;31.02;;;16.17;;
55455;SDS011;63021;52.836;6.376;2023-03-19T15:56:56;38.17;;;17.70;;
55455;SDS011;63021;52.836;6.376;2023-03-19T15:59:22;31.58;;;16.15;;
55455;SDS011;63021;52.836;6.376;2023-03-19T16:01:51;31.95;;;17.80;;
55455;SDS011;63021;52.836;6.376;2023-03-19T16:04:23;33.22;;;16.40;;
55455;SDS011;63021;52.836;6.376;2023-03-19T16:06:53;31.90;;;15.80;;
55455;SDS011;63021;52.836;6.376;2023-03-19T16:09:23;34.03;;;17.33;;
55455;SDS011;63021;52.836;6.376;2023-03-19T16:11:54;36.42;;;17.55;;
55455;SDS011;63021;52.836;6.376;2023-03-19T16:16:47;31.05;;;15.02;;
55455;SDS011;63021;52.836;6.376;2023-03-19T16:21:55;31.15;;;16.75;;
55455;SDS011;63021;52.836;6.376;2023-03-19T16:27:01;34.35;;;16.25;;
55455;SDS011;63021;52.836;6.376;2023-03-19T16:29:34;35.10;;;17.60;;
55455;SDS011;63021;52.836;6.376;2023-03-19T16:32:06;33.85;;;17.05;;
55455;SDS011;63021;52.836;6.376;2023-03-19T16:34:43;35.13;;;17.88;;
55455;SDS011;63021;52.836;6.376;2023-03-19T16:47:40;38.80;;;18.83;;
55455;SDS011;63021;52.836;6.376;2023-03-19T16:50:06;41.63;;;19.65;;
55455;SDS011;63021;52.836;6.376;2023-03-19T16:52:32;43.38;;;20.35;;
55455;SDS011;63021;52.836;6.376;2023-03-19T16:55:00;41.78;;;19.73;;
55455;SDS011;63021;52.836;6.376;2023-03-19T16:57:26;40.15;;;19.80;;
55455;SDS011;63021;52.836;6.376;2023-03-19T16:59:52;42.33;;;19.88;;
55455;SDS011;63021;52.836;6.376;2023-03-19T17:02:18;45.15;;;21.15;;
55455;SDS011;63021;52.836;6.376;2023-03-19T17:04:44;44.13;;;20.02;;
55455;SDS011;63021;52.836;6.376;2023-03-19T17:07:10;42.92;;;19.77;;
55455;SDS011;63021;52.836;6.376;2023-03-19T17:09:36;41.17;;;20.45;;
55455;SDS011;63021;52.836;6.376;2023-03-19T17:12:02;43.92;;;20.77;;
55455;SDS011;63021;52.836;6.376;2023-03-19T17:14:29;44.55;;;21.40;;
55455;SDS011;63021;52.836;6.376;2023-03-19T17:16:55;45.92;;;23.08;;
55455;SDS011;63021;52.836;6.376;2023-03-19T17:19:22;50.45;;;22.50;;
55455;SDS011;63021;52.836;6.376;2023-03-19T17:21:50;47.78;;;22.90;;